sensor_id;sensor_type;location;lat;lon;timestamp;P1;durP1;ratioP1;P2;durP2;ratioP2
20888;SDS011;10604;51.976;7.594;2022-08-11T00:02:53;3.50;;;2.53;;
20888;SDS011;10604;51.976;7.594;2022-08-11T00:05:15;3.10;;;2.58;;
20888;SDS011;10604;51.976;7.594;2022-08-11T00:07:46;2.63;;;2.42;;
20888;SDS011;10604;51.976;7.594;2022-08-11T00:10:23;2.40;;;2.20;;
20888;SDS011;10604;51.976;7.594;2022-08-11T00:12:52;2.57;;;2.33;;
20888;SDS011;10604;51.976;7.594;2022-08-11T00:15:21;3.00;;;2.47;;
20888;SDS011;10604;51.976;7.594;2022-08-11T00:17:47;2.90;;;2.60;;
20888;SDS011;10604;51.976;7.594;2022-08-11T00:20:14;3.03;;;2.40;;
20888;SDS011;10604;51.976;7.594;2022-08-11T00:22:42;2.78;;;2.50;;
20888;SDS011;10604;51.976;7.594;2022-08-11T00:25:09;3.80;;;2.33;;
20888;SDS011;10604;51.976;7.594;2022-08-11T00:27:37;2.45;;;2.22;;
20888;SDS011;10604;51.976;7.594;2022-08-11T00:30:04;2.72;;;2.47;;
20888;SDS011;10604;51.976;7.594;2022-08-11T00:32:31;2.70;;;2.50;;
20888;SDS011;10604;51.976;7.594;2022-08-11T00:34:58;3.00;;;2.53;;
20888;SDS011;10604;51.976;7.594;2022-08-11T00:37:25;2.85;;;2.45;;
20888;SDS011;10604;51.976;7.594;2022-08-11T00:39:52;2.80;;;2.30;;
20888;SDS011;10604;51.976;7.594;2022-08-11T00:58:28;2.70;;;2.30;;
20888;SDS011;10604;51.976;7.594;2022-08-11T01:01:09;3.08;;;2.60;;
20888;SDS011;10604;51.976;7.594;2022-08-11T01:46:55;3.85;;;2.70;;
20888;SDS011;10604;51.976;7.594;2022-08-11T01:49:27;3.13;;;2.83;;
20888;SDS011;10604;51.976;7.594;2022-08-11T01:55:04;3.47;;;2.97;;
20888;SDS011;10604;51.976;7.594;2022-08-11T01:57:36;3.50;;;2.78;;
20888;SDS011;10604;51.976;7.594;2022-08-11T02:00:25;3.85;;;2.60;;
20888;SDS011;10604;51.976;7.594;2022-08-11T02:05:43;3.95;;;2.95;;
20888;SDS011;10604;51.976;7.594;2022-08-11T02:08:48;4.35;;;2.75;;
20888;SDS011;10604;51.976;7.594;2022-08-11T02:11:27;2.95;;;2.67;;
20888;SDS011;10604;51.976;7.594;2022-08-11T02:22:16;3.50;;;2.90;;
20888;SDS011;10604;51.976;7.594;2022-08-11T02:25:30;3.30;;;2.97;;
20888;SDS011;10604;51.976;7.594;2022-08-11T02:31:01;4.35;;;3.00;;
20888;SDS011;10604;51.976;7.594;2022-08-11T02:33:53;5.00;;;2.97;;
20888;SDS011;10604;51.976;7.594;2022-08-11T02:36:35;3.63;;;3.05;;
20888;SDS011;10604;51.976;7.594;2022-08-11T02:39:12;3.80;;;3.00;;
20888;SDS011;10604;51.976;7.594;2022-08-11T02:41:58;3.90;;;2.97;;
20888;SDS011;10604;51.976;7.594;2022-08-11T02:47:30;3.88;;;2.90;;
20888;SDS011;10604;51.976;7.594;2022-08-11T02:51:24;4.63;;;3.40;;
20888;SDS011;10604;51.976;7.594;2022-08-11T02:56:17;5.27;;;3.00;;
20888;SDS011;10604;51.976;7.594;2022-08-11T03:01:39;3.97;;;2.97;;
20888;SDS011;10604;51.976;7.594;2022-08-11T03:04:35;3.20;;;2.88;;
20888;SDS011;10604;51.976;7.594;2022-08-11T03:07:37;5.43;;;3.33;;
20888;SDS011;10604;51.976;7.594;2022-08-11T03:13:03;3.95;;;3.25;;
20888;SDS011;10604;51.976;7.594;2022-08-11T03:16:52;5.20;;;3.45;;
20888;SDS011;10604;51.976;7.594;2022-08-11T03:21:58;5.40;;;3.10;;
20888;SDS011;10604;51.976;7.594;2022-08-11T03:24:32;3.60;;;3.03;;
20888;SDS011;10604;51.976;7.594;2022-08-11T03:30:09;4.20;;;3.20;;
20888;SDS011;10604;51.976;7.594;2022-08-11T03:35:48;3.40;;;3.10;;
20888;SDS011;10604;51.976;7.594;2022-08-11T03:38:30;4.43;;;3.03;;
20888;SDS011;10604;51.976;7.594;2022-08-11T03:41:25;3.30;;;3.00;;
20888;SDS011;10604;51.976;7.594;2022-08-11T03:52:16;4.10;;;3.20;;
20888;SDS011;10604;51.976;7.594;2022-08-11T04:03:24;4.20;;;3.20;;
20888;SDS011;10604;51.976;7.594;2022-08-11T04:22:59;3.80;;;3.00;;
20888;SDS011;10604;51.976;7.594;2022-08-11T04:37:08;3.80;;;3.40;;
20888;SDS011;10604;51.976;7.594;2022-08-11T04:54:57;4.53;;;3.25;;
20888;SDS011;10604;51.976;7.594;2022-08-11T05:13:09;4.15;;;3.30;;
20888;SDS011;10604;51.976;7.594;2022-08-11T05:15:55;3.92;;;3.38;;
20888;SDS011;10604;51.976;7.594;2022-08-11T05:18:49;5.45;;;3.20;;
20888;SDS011;10604;51.976;7.594;2022-08-11T05:21:35;5.65;;;3.60;;
20888;SDS011;10604;51.976;7.594;2022-08-11T05:24:23;5.45;;;3.50;;
20888;SDS011;10604;51.976;7.594;2022-08-11T05:27:08;5.68;;;3.25;;
20888;SDS011;10604;51.976;7.594;2022-08-11T05:32:56;4.30;;;2.97;;
20888;SDS011;10604;51.976;7.594;2022-08-11T05:35:45;4.20;;;3.40;;
20888;SDS011;10604;51.976;7.594;2022-08-11T05:38:23;3.75;;;3.20;;
20888;SDS011;10604;51.976;7.594;2022-08-11T05:41:12;3.93;;;3.53;;
20888;SDS011;10604;51.976;7.594;2022-08-11T05:44:01;3.63;;;3.15;;
20888;SDS011;10604;51.976;7.594;2022-08-11T05:46:46;5.25;;;3.22;;
20888;SDS011;10604;51.976;7.594;2022-08-11T05:49:32;7.18;;;3.30;;
20888;SDS011;10604;51.976;7.594;2022-08-11T05:52:19;4.07;;;3.33;;
20888;SDS011;10604;51.976;7.594;2022-08-11T05:55:05;4.72;;;3.40;;
20888;SDS011;10604;51.976;7.594;2022-08-11T05:57:55;6.18;;;3.28;;
20888;SDS011;10604;51.976;7.594;2022-08-11T06:00:21;5.75;;;3.47;;
20888;SDS011;10604;51.976;7.594;2022-08-11T06:02:50;4.57;;;3.33;;
20888;SDS011;10604;51.976;7.594;2022-08-11T06:05:20;5.40;;;3.22;;
20888;SDS011;10604;51.976;7.594;2022-08-11T06:07:47;6.40;;;3.50;;
20888;SDS011;10604;51.976;7.594;2022-08-11T06:10:14;5.03;;;3.47;;
20888;SDS011;10604;51.976;7.594;2022-08-11T06:12:51;4.35;;;3.00;;
20888;SDS011;10604;51.976;7.594;2022-08-11T06:15:17;5.72;;;3.28;;
20888;SDS011;10604;51.976;7.594;2022-08-11T06:17:44;5.82;;;3.38;;
20888;SDS011;10604;51.976;7.594;2022-08-11T06:20:11;7.25;;;3.35;;
20888;SDS011;10604;51.976;7.594;2022-08-11T06:22:38;8.55;;;3.30;;
20888;SDS011;10604;51.976;7.594;2022-08-11T06:25:07;4.22;;;3.20;;
20888;SDS011;10604;51.976;7.594;2022-08-11T06:27:34;3.72;;;2.80;;
20888;SDS011;10604;51.976;7.594;2022-08-11T06:30:02;5.28;;;3.00;;
20888;SDS011;10604;51.976;7.594;2022-08-11T06:32:37;5.63;;;3.20;;
20888;SDS011;10604;51.976;7.594;2022-08-11T06:35:44;5.18;;;2.90;;
20888;SDS011;10604;51.976;7.594;2022-08-11T06:38:27;4.78;;;2.72;;
20888;SDS011;10604;51.976;7.594;2022-08-11T06:41:37;5.03;;;2.85;;
20888;SDS011;10604;51.976;7.594;2022-08-11T06:49:10;5.90;;;2.80;;
20888;SDS011;10604;51.976;7.594;2022-08-11T06:52:01;3.85;;;2.30;;
20888;SDS011;10604;51.976;7.594;2022-08-11T06:54:35;3.65;;;2.50;;
20888;SDS011;10604;51.976;7.594;2022-08-11T06:57:05;4.68;;;2.50;;
20888;SDS011;10604;51.976;7.594;2022-08-11T06:59:51;4.65;;;2.90;;
20888;SDS011;10604;51.976;7.594;2022-08-11T07:02:37;6.47;;;2.40;;
20888;SDS011;10604;51.976;7.594;2022-08-11T07:05:16;4.03;;;2.20;;
20888;SDS011;10604;51.976;7.594;2022-08-11T07:14:20;7.50;;;2.10;;
20888;SDS011;10604;51.976;7.594;2022-08-11T07:17:08;4.40;;;2.07;;
20888;SDS011;10604;51.976;7.594;2022-08-11T07:19:38;3.00;;;2.25;;
20888;SDS011;10604;51.976;7.594;2022-08-11T07:22:28;3.83;;;2.20;;
20888;SDS011;10604;51.976;7.594;2022-08-11T07:25:35;2.88;;;1.90;;
20888;SDS011;10604;51.976;7.594;2022-08-11T07:28:23;2.50;;;1.92;;
20888;SDS011;10604;51.976;7.594;2022-08-11T07:33:55;3.00;;;1.60;;
20888;SDS011;10604;51.976;7.594;2022-08-11T07:36:29;5.28;;;1.98;;
20888;SDS011;10604;51.976;7.594;2022-08-11T07:38:55;3.90;;;1.70;;
20888;SDS011;10604;51.976;7.594;2022-08-11T07:41:23;4.07;;;2.10;;
20888;SDS011;10604;51.976;7.594;2022-08-11T07:43:50;2.80;;;1.77;;
20888;SDS011;10604;51.976;7.594;2022-08-11T07:48:46;6.82;;;1.73;;
20888;SDS011;10604;51.976;7.594;2022-08-11T07:51:30;3.63;;;1.88;;
20888;SDS011;10604;51.976;7.594;2022-08-11T07:54:14;6.10;;;2.30;;
20888;SDS011;10604;51.976;7.594;2022-08-11T07:56:39;5.37;;;1.80;;
20888;SDS011;10604;51.976;7.594;2022-08-11T07:59:06;3.15;;;2.00;;
20888;SDS011;10604;51.976;7.594;2022-08-11T08:01:51;3.55;;;2.20;;
20888;SDS011;10604;51.976;7.594;2022-08-11T08:04:35;4.68;;;2.05;;
20888;SDS011;10604;51.976;7.594;2022-08-11T08:07:20;3.08;;;1.70;;
20888;SDS011;10604;51.976;7.594;2022-08-11T08:10:05;3.55;;;1.75;;
20888;SDS011;10604;51.976;7.594;2022-08-11T08:12:52;3.53;;;1.90;;
20888;SDS011;10604;51.976;7.594;2022-08-11T08:15:37;2.30;;;1.80;;
20888;SDS011;10604;51.976;7.594;2022-08-11T08:18:22;3.00;;;1.90;;
20888;SDS011;10604;51.976;7.594;2022-08-11T08:20:49;3.27;;;2.30;;
20888;SDS011;10604;51.976;7.594;2022-08-11T08:23:16;3.90;;;2.25;;
20888;SDS011;10604;51.976;7.594;2022-08-11T08:25:57;4.05;;;2.08;;
20888;SDS011;10604;51.976;7.594;2022-08-11T08:28:25;4.85;;;2.33;;
20888;SDS011;10604;51.976;7.594;2022-08-11T08:30:52;4.95;;;1.90;;
20888;SDS011;10604;51.976;7.594;2022-08-11T08:33:27;2.60;;;2.05;;
20888;SDS011;10604;51.976;7.594;2022-08-11T08:35:55;3.70;;;2.20;;
20888;SDS011;10604;51.976;7.594;2022-08-11T08:38:41;4.15;;;2.00;;
20888;SDS011;10604;51.976;7.594;2022-08-11T08:41:21;5.47;;;2.37;;
20888;SDS011;10604;51.976;7.594;2022-08-11T08:43:49;4.63;;;2.42;;
20888;SDS011;10604;51.976;7.594;2022-08-11T08:46:24;5.35;;;2.30;;
20888;SDS011;10604;51.976;7.594;2022-08-11T08:48:54;3.57;;;2.30;;
20888;SDS011;10604;51.976;7.594;2022-08-11T08:51:24;4.75;;;2.50;;
20888;SDS011;10604;51.976;7.594;2022-08-11T08:54:03;4.97;;;2.45;;
20888;SDS011;10604;51.976;7.594;2022-08-11T08:56:31;4.60;;;2.70;;
20888;SDS011;10604;51.976;7.594;2022-08-11T08:59:01;4.03;;;2.20;;
20888;SDS011;10604;51.976;7.594;2022-08-11T09:01:32;5.35;;;2.70;;
20888;SDS011;10604;51.976;7.594;2022-08-11T09:04:06;4.55;;;2.40;;
20888;SDS011;10604;51.976;7.594;2022-08-11T09:06:38;3.58;;;2.63;;
20888;SDS011;10604;51.976;7.594;2022-08-11T09:09:05;5.43;;;2.53;;
20888;SDS011;10604;51.976;7.594;2022-08-11T09:11:36;4.75;;;2.42;;
20888;SDS011;10604;51.976;7.594;2022-08-11T09:14:34;3.45;;;2.75;;
20888;SDS011;10604;51.976;7.594;2022-08-11T09:17:20;3.95;;;2.55;;
20888;SDS011;10604;51.976;7.594;2022-08-11T09:19:47;5.30;;;2.95;;
20888;SDS011;10604;51.976;7.594;2022-08-11T09:22:18;5.47;;;2.70;;
20888;SDS011;10604;51.976;7.594;2022-08-11T09:25:04;7.65;;;2.65;;
20888;SDS011;10604;51.976;7.594;2022-08-11T09:27:50;4.37;;;2.70;;
20888;SDS011;10604;51.976;7.594;2022-08-11T09:30:18;5.80;;;2.92;;
20888;SDS011;10604;51.976;7.594;2022-08-11T09:32:44;6.63;;;2.60;;
20888;SDS011;10604;51.976;7.594;2022-08-11T09:35:11;4.25;;;2.70;;
20888;SDS011;10604;51.976;7.594;2022-08-11T09:37:37;7.27;;;3.00;;
20888;SDS011;10604;51.976;7.594;2022-08-11T09:40:21;4.82;;;2.65;;
20888;SDS011;10604;51.976;7.594;2022-08-11T09:42:55;5.03;;;2.53;;
20888;SDS011;10604;51.976;7.594;2022-08-11T09:45:42;4.60;;;2.83;;
20888;SDS011;10604;51.976;7.594;2022-08-11T09:48:14;3.83;;;2.83;;
20888;SDS011;10604;51.976;7.594;2022-08-11T09:50:43;6.45;;;2.83;;
20888;SDS011;10604;51.976;7.594;2022-08-11T09:53:14;4.10;;;2.60;;
20888;SDS011;10604;51.976;7.594;2022-08-11T09:55:40;3.38;;;2.70;;
20888;SDS011;10604;51.976;7.594;2022-08-11T09:58:07;4.18;;;2.80;;
20888;SDS011;10604;51.976;7.594;2022-08-11T10:00:40;3.97;;;2.78;;
20888;SDS011;10604;51.976;7.594;2022-08-11T10:05:50;5.80;;;2.70;;
20888;SDS011;10604;51.976;7.594;2022-08-11T10:08:38;4.30;;;3.00;;
20888;SDS011;10604;51.976;7.594;2022-08-11T10:11:06;4.82;;;2.85;;
20888;SDS011;10604;51.976;7.594;2022-08-11T10:13:36;4.68;;;2.55;;
20888;SDS011;10604;51.976;7.594;2022-08-11T10:16:29;6.82;;;2.55;;
20888;SDS011;10604;51.976;7.594;2022-08-11T10:19:00;3.83;;;2.50;;
20888;SDS011;10604;51.976;7.594;2022-08-11T10:24:05;6.20;;;2.60;;
20888;SDS011;10604;51.976;7.594;2022-08-11T10:26:51;3.88;;;2.53;;
20888;SDS011;10604;51.976;7.594;2022-08-11T10:29:23;4.15;;;2.70;;
20888;SDS011;10604;51.976;7.594;2022-08-11T10:32:10;4.07;;;2.50;;
20888;SDS011;10604;51.976;7.594;2022-08-11T10:34:55;6.97;;;2.85;;
20888;SDS011;10604;51.976;7.594;2022-08-11T10:37:23;5.05;;;2.83;;
20888;SDS011;10604;51.976;7.594;2022-08-11T10:39:50;5.53;;;2.90;;
20888;SDS011;10604;51.976;7.594;2022-08-11T10:42:16;3.25;;;2.67;;
20888;SDS011;10604;51.976;7.594;2022-08-11T10:45:03;6.32;;;2.65;;
20888;SDS011;10604;51.976;7.594;2022-08-11T10:47:53;5.87;;;2.40;;
20888;SDS011;10604;51.976;7.594;2022-08-11T10:50:20;3.70;;;2.40;;
20888;SDS011;10604;51.976;7.594;2022-08-11T10:53:05;4.90;;;2.50;;
20888;SDS011;10604;51.976;7.594;2022-08-11T10:55:50;4.80;;;2.85;;
20888;SDS011;10604;51.976;7.594;2022-08-11T10:58:35;3.00;;;2.35;;
20888;SDS011;10604;51.976;7.594;2022-08-11T12:28:29;3.50;;;3.20;;
20888;SDS011;10604;51.976;7.594;2022-08-11T12:30:56;4.80;;;2.40;;
20888;SDS011;10604;51.976;7.594;2022-08-11T12:33:21;3.87;;;2.30;;
20888;SDS011;10604;51.976;7.594;2022-08-11T12:35:51;4.68;;;2.28;;
20888;SDS011;10604;51.976;7.594;2022-08-11T12:38:20;5.35;;;2.25;;
20888;SDS011;10604;51.976;7.594;2022-08-11T12:40:47;4.07;;;2.17;;
20888;SDS011;10604;51.976;7.594;2022-08-11T12:43:32;5.65;;;2.20;;
20888;SDS011;10604;51.976;7.594;2022-08-11T12:46:21;3.58;;;2.10;;
20888;SDS011;10604;51.976;7.594;2022-08-11T12:48:56;4.90;;;2.20;;
20888;SDS011;10604;51.976;7.594;2022-08-11T12:51:44;4.28;;;2.22;;
20888;SDS011;10604;51.976;7.594;2022-08-11T12:57:13;4.07;;;2.28;;
20888;SDS011;10604;51.976;7.594;2022-08-11T13:00:09;3.67;;;2.63;;
20888;SDS011;10604;51.976;7.594;2022-08-11T13:02:53;4.17;;;2.43;;
20888;SDS011;10604;51.976;7.594;2022-08-11T13:05:40;2.70;;;2.03;;
20888;SDS011;10604;51.976;7.594;2022-08-11T13:08:07;2.80;;;2.35;;
20888;SDS011;10604;51.976;7.594;2022-08-11T13:10:33;3.72;;;2.20;;
20888;SDS011;10604;51.976;7.594;2022-08-11T13:13:18;8.05;;;2.38;;
20888;SDS011;10604;51.976;7.594;2022-08-11T13:15:47;5.28;;;2.00;;
20888;SDS011;10604;51.976;7.594;2022-08-11T13:18:17;3.92;;;2.10;;
20888;SDS011;10604;51.976;7.594;2022-08-11T13:20:47;3.97;;;2.53;;
20888;SDS011;10604;51.976;7.594;2022-08-11T13:23:23;4.63;;;2.50;;
20888;SDS011;10604;51.976;7.594;2022-08-11T13:25:50;5.30;;;2.50;;
20888;SDS011;10604;51.976;7.594;2022-08-11T13:28:18;4.43;;;2.40;;
20888;SDS011;10604;51.976;7.594;2022-08-11T13:30:45;4.95;;;2.50;;
20888;SDS011;10604;51.976;7.594;2022-08-11T13:33:31;4.63;;;2.47;;
20888;SDS011;10604;51.976;7.594;2022-08-11T13:35:58;4.93;;;2.55;;
20888;SDS011;10604;51.976;7.594;2022-08-11T13:38:24;5.38;;;2.45;;
20888;SDS011;10604;51.976;7.594;2022-08-11T13:40:53;4.20;;;2.40;;
20888;SDS011;10604;51.976;7.594;2022-08-11T13:43:20;4.23;;;2.27;;
20888;SDS011;10604;51.976;7.594;2022-08-11T13:45:47;4.75;;;2.40;;
20888;SDS011;10604;51.976;7.594;2022-08-11T13:48:14;6.17;;;2.20;;
20888;SDS011;10604;51.976;7.594;2022-08-11T13:50:41;22.02;;;3.83;;
20888;SDS011;10604;51.976;7.594;2022-08-11T13:53:26;9.68;;;3.05;;
20888;SDS011;10604;51.976;7.594;2022-08-11T13:55:54;18.13;;;3.00;;
20888;SDS011;10604;51.976;7.594;2022-08-11T13:58:24;10.30;;;2.50;;
20888;SDS011;10604;51.976;7.594;2022-08-11T14:00:51;14.55;;;3.45;;
20888;SDS011;10604;51.976;7.594;2022-08-11T14:03:24;3.90;;;2.50;;
20888;SDS011;10604;51.976;7.594;2022-08-11T14:05:52;6.05;;;2.80;;
20888;SDS011;10604;51.976;7.594;2022-08-11T14:08:23;7.30;;;2.57;;
20888;SDS011;10604;51.976;7.594;2022-08-11T14:10:51;6.00;;;2.37;;
20888;SDS011;10604;51.976;7.594;2022-08-11T14:13:43;5.70;;;2.40;;
20888;SDS011;10604;51.976;7.594;2022-08-11T14:16:11;5.30;;;2.25;;
20888;SDS011;10604;51.976;7.594;2022-08-11T14:18:43;37.90;;;4.00;;
20888;SDS011;10604;51.976;7.594;2022-08-11T14:21:12;5.17;;;2.30;;
20888;SDS011;10604;51.976;7.594;2022-08-11T14:23:58;7.22;;;2.80;;
20888;SDS011;10604;51.976;7.594;2022-08-11T14:26:27;9.63;;;3.00;;
20888;SDS011;10604;51.976;7.594;2022-08-11T14:31:36;8.10;;;2.63;;
20888;SDS011;10604;51.976;7.594;2022-08-11T14:34:03;5.00;;;2.50;;
20888;SDS011;10604;51.976;7.594;2022-08-11T14:36:38;4.47;;;2.33;;
20888;SDS011;10604;51.976;7.594;2022-08-11T14:39:07;4.93;;;2.50;;
20888;SDS011;10604;51.976;7.594;2022-08-11T14:41:36;3.23;;;2.60;;
20888;SDS011;10604;51.976;7.594;2022-08-11T14:44:23;4.28;;;2.47;;
20888;SDS011;10604;51.976;7.594;2022-08-11T14:47:08;7.20;;;2.83;;
20888;SDS011;10604;51.976;7.594;2022-08-11T14:49:39;6.53;;;2.70;;
20888;SDS011;10604;51.976;7.594;2022-08-11T14:52:08;4.35;;;2.50;;
20888;SDS011;10604;51.976;7.594;2022-08-11T14:54:44;3.20;;;2.72;;
20888;SDS011;10604;51.976;7.594;2022-08-11T14:57:37;3.80;;;2.50;;
20888;SDS011;10604;51.976;7.594;2022-08-11T15:20:17;6.47;;;2.70;;
20888;SDS011;10604;51.976;7.594;2022-08-11T15:23:03;4.50;;;2.53;;
20888;SDS011;10604;51.976;7.594;2022-08-11T15:25:55;3.35;;;2.83;;
20888;SDS011;10604;51.976;7.594;2022-08-11T15:28:23;4.93;;;2.70;;
20888;SDS011;10604;51.976;7.594;2022-08-11T15:31:09;4.28;;;2.60;;
20888;SDS011;10604;51.976;7.594;2022-08-11T15:33:47;4.50;;;3.17;;
20888;SDS011;10604;51.976;7.594;2022-08-11T15:36:35;5.17;;;2.70;;
20888;SDS011;10604;51.976;7.594;2022-08-11T15:39:20;4.60;;;2.55;;
20888;SDS011;10604;51.976;7.594;2022-08-11T15:44:55;3.60;;;2.60;;
20888;SDS011;10604;51.976;7.594;2022-08-11T15:47:58;5.17;;;2.70;;
20888;SDS011;10604;51.976;7.594;2022-08-11T15:50:27;5.38;;;2.67;;
20888;SDS011;10604;51.976;7.594;2022-08-11T15:53:01;4.85;;;2.78;;
20888;SDS011;10604;51.976;7.594;2022-08-11T15:55:31;3.72;;;2.35;;
20888;SDS011;10604;51.976;7.594;2022-08-11T15:58:01;5.05;;;2.65;;
20888;SDS011;10604;51.976;7.594;2022-08-11T16:00:47;4.65;;;2.40;;
20888;SDS011;10604;51.976;7.594;2022-08-11T16:03:50;6.57;;;2.80;;
20888;SDS011;10604;51.976;7.594;2022-08-11T16:10:01;3.80;;;2.40;;
20888;SDS011;10604;51.976;7.594;2022-08-11T16:12:34;4.07;;;2.40;;
20888;SDS011;10604;51.976;7.594;2022-08-11T16:15:04;4.03;;;2.60;;
20888;SDS011;10604;51.976;7.594;2022-08-11T16:17:53;4.53;;;2.40;;
20888;SDS011;10604;51.976;7.594;2022-08-11T16:20:23;3.88;;;2.88;;
20888;SDS011;10604;51.976;7.594;2022-08-11T16:22:52;4.15;;;3.55;;
20888;SDS011;10604;51.976;7.594;2022-08-11T16:25:20;4.85;;;2.80;;
20888;SDS011;10604;51.976;7.594;2022-08-11T16:27:52;4.35;;;2.80;;
20888;SDS011;10604;51.976;7.594;2022-08-11T16:30:21;3.58;;;2.58;;
20888;SDS011;10604;51.976;7.594;2022-08-11T16:32:48;9.57;;;2.78;;
20888;SDS011;10604;51.976;7.594;2022-08-11T16:35:18;4.25;;;2.42;;
20888;SDS011;10604;51.976;7.594;2022-08-11T16:38:06;3.10;;;2.65;;
20888;SDS011;10604;51.976;7.594;2022-08-11T16:40:53;3.13;;;2.53;;
20888;SDS011;10604;51.976;7.594;2022-08-11T16:43:24;4.40;;;2.40;;
20888;SDS011;10604;51.976;7.594;2022-08-11T16:46:11;6.13;;;2.60;;
20888;SDS011;10604;51.976;7.594;2022-08-11T16:48:57;4.25;;;2.60;;
20888;SDS011;10604;51.976;7.594;2022-08-11T16:51:25;3.70;;;2.50;;
20888;SDS011;10604;51.976;7.594;2022-08-11T16:53:51;4.63;;;2.20;;
20888;SDS011;10604;51.976;7.594;2022-08-11T16:56:18;4.40;;;2.50;;
20888;SDS011;10604;51.976;7.594;2022-08-11T16:58:47;4.20;;;2.20;;
20888;SDS011;10604;51.976;7.594;2022-08-11T17:01:35;2.73;;;2.30;;
20888;SDS011;10604;51.976;7.594;2022-08-11T17:04:06;3.50;;;2.42;;
20888;SDS011;10604;51.976;7.594;2022-08-11T17:06:54;4.88;;;2.17;;
20888;SDS011;10604;51.976;7.594;2022-08-11T17:09:39;4.40;;;2.40;;
20888;SDS011;10604;51.976;7.594;2022-08-11T17:12:24;2.95;;;2.45;;
20888;SDS011;10604;51.976;7.594;2022-08-11T17:15:13;3.60;;;2.38;;
20888;SDS011;10604;51.976;7.594;2022-08-11T17:17:59;7.22;;;2.70;;
20888;SDS011;10604;51.976;7.594;2022-08-11T17:20:27;2.60;;;2.30;;
20888;SDS011;10604;51.976;7.594;2022-08-11T17:22:55;2.85;;;2.15;;
20888;SDS011;10604;51.976;7.594;2022-08-11T17:25:39;2.92;;;2.35;;
20888;SDS011;10604;51.976;7.594;2022-08-11T17:28:06;3.83;;;2.13;;
20888;SDS011;10604;51.976;7.594;2022-08-11T17:30:33;6.72;;;2.50;;
20888;SDS011;10604;51.976;7.594;2022-08-11T17:33:18;4.60;;;2.30;;
20888;SDS011;10604;51.976;7.594;2022-08-11T17:36:04;3.05;;;2.42;;
20888;SDS011;10604;51.976;7.594;2022-08-11T17:38:31;4.25;;;2.60;;
20888;SDS011;10604;51.976;7.594;2022-08-11T17:40:59;4.00;;;2.40;;
20888;SDS011;10604;51.976;7.594;2022-08-11T17:43:45;2.90;;;2.00;;
20888;SDS011;10604;51.976;7.594;2022-08-11T17:46:30;5.30;;;2.40;;
20888;SDS011;10604;51.976;7.594;2022-08-11T17:49:16;5.15;;;2.67;;
20888;SDS011;10604;51.976;7.594;2022-08-11T17:51:44;3.47;;;2.40;;
20888;SDS011;10604;51.976;7.594;2022-08-11T17:54:30;4.60;;;2.20;;
20888;SDS011;10604;51.976;7.594;2022-08-11T17:57:15;3.70;;;2.47;;
20888;SDS011;10604;51.976;7.594;2022-08-11T18:00:00;3.20;;;2.45;;
20888;SDS011;10604;51.976;7.594;2022-08-11T18:02:33;3.45;;;2.13;;
20888;SDS011;10604;51.976;7.594;2022-08-11T18:05:20;5.10;;;2.53;;
20888;SDS011;10604;51.976;7.594;2022-08-11T18:07:50;4.45;;;2.10;;
20888;SDS011;10604;51.976;7.594;2022-08-11T18:10:37;4.03;;;2.13;;
20888;SDS011;10604;51.976;7.594;2022-08-11T18:13:22;3.70;;;2.30;;
20888;SDS011;10604;51.976;7.594;2022-08-11T18:16:07;5.80;;;3.90;;
20888;SDS011;10604;51.976;7.594;2022-08-11T18:18:52;6.53;;;3.20;;
20888;SDS011;10604;51.976;7.594;2022-08-11T18:21:37;4.30;;;2.50;;
20888;SDS011;10604;51.976;7.594;2022-08-11T18:24:28;3.00;;;2.30;;
20888;SDS011;10604;51.976;7.594;2022-08-11T18:27:15;2.20;;;2.00;;
20888;SDS011;10604;51.976;7.594;2022-08-11T18:30:01;3.53;;;2.50;;
20888;SDS011;10604;51.976;7.594;2022-08-11T18:32:47;3.67;;;2.25;;
20888;SDS011;10604;51.976;7.594;2022-08-11T18:35:33;4.88;;;2.13;;
20888;SDS011;10604;51.976;7.594;2022-08-11T18:38:18;5.10;;;2.30;;
20888;SDS011;10604;51.976;7.594;2022-08-11T18:41:05;4.63;;;2.28;;
20888;SDS011;10604;51.976;7.594;2022-08-11T18:43:51;4.73;;;1.90;;
20888;SDS011;10604;51.976;7.594;2022-08-11T18:46:40;3.60;;;2.00;;
20888;SDS011;10604;51.976;7.594;2022-08-11T18:49:28;3.40;;;2.03;;
20888;SDS011;10604;51.976;7.594;2022-08-11T18:52:18;3.55;;;2.00;;
20888;SDS011;10604;51.976;7.594;2022-08-11T18:55:04;3.25;;;2.10;;
20888;SDS011;10604;51.976;7.594;2022-08-11T18:57:53;5.32;;;2.08;;
20888;SDS011;10604;51.976;7.594;2022-08-11T19:00:39;2.60;;;1.95;;
20888;SDS011;10604;51.976;7.594;2022-08-11T19:03:26;2.30;;;2.10;;
20888;SDS011;10604;51.976;7.594;2022-08-11T19:06:11;3.97;;;2.20;;
20888;SDS011;10604;51.976;7.594;2022-08-11T19:08:58;2.53;;;2.10;;
20888;SDS011;10604;51.976;7.594;2022-08-11T19:11:44;2.42;;;2.15;;
20888;SDS011;10604;51.976;7.594;2022-08-11T19:14:30;4.30;;;2.30;;
20888;SDS011;10604;51.976;7.594;2022-08-11T19:17:16;2.97;;;2.00;;
20888;SDS011;10604;51.976;7.594;2022-08-11T19:20:03;4.55;;;2.40;;
20888;SDS011;10604;51.976;7.594;2022-08-11T19:22:49;3.25;;;2.28;;
20888;SDS011;10604;51.976;7.594;2022-08-11T19:25:35;4.05;;;2.20;;
20888;SDS011;10604;51.976;7.594;2022-08-11T19:28:21;4.00;;;2.40;;
20888;SDS011;10604;51.976;7.594;2022-08-11T19:31:07;2.25;;;1.98;;
20888;SDS011;10604;51.976;7.594;2022-08-11T19:33:53;2.83;;;2.10;;
20888;SDS011;10604;51.976;7.594;2022-08-11T19:36:41;3.40;;;2.50;;
20888;SDS011;10604;51.976;7.594;2022-08-11T19:39:26;2.80;;;2.20;;
20888;SDS011;10604;51.976;7.594;2022-08-11T19:42:11;5.05;;;2.30;;
20888;SDS011;10604;51.976;7.594;2022-08-11T19:44:57;4.18;;;2.30;;
20888;SDS011;10604;51.976;7.594;2022-08-11T19:47:43;2.80;;;2.20;;
20888;SDS011;10604;51.976;7.594;2022-08-11T19:50:29;3.75;;;2.30;;
20888;SDS011;10604;51.976;7.594;2022-08-11T19:53:14;4.75;;;2.30;;
20888;SDS011;10604;51.976;7.594;2022-08-11T19:55:59;6.80;;;2.42;;
20888;SDS011;10604;51.976;7.594;2022-08-11T19:58:44;3.47;;;2.38;;
20888;SDS011;10604;51.976;7.594;2022-08-11T20:01:28;4.40;;;2.25;;
20888;SDS011;10604;51.976;7.594;2022-08-11T20:04:12;4.18;;;2.30;;
20888;SDS011;10604;51.976;7.594;2022-08-11T20:06:56;3.03;;;2.42;;
20888;SDS011;10604;51.976;7.594;2022-08-11T20:09:42;3.47;;;2.60;;
20888;SDS011;10604;51.976;7.594;2022-08-11T20:12:28;2.92;;;2.17;;
20888;SDS011;10604;51.976;7.594;2022-08-11T20:15:15;3.20;;;2.10;;
20888;SDS011;10604;51.976;7.594;2022-08-11T20:18:02;3.15;;;2.20;;
20888;SDS011;10604;51.976;7.594;2022-08-11T20:20:48;2.70;;;2.20;;
20888;SDS011;10604;51.976;7.594;2022-08-11T20:23:36;3.97;;;2.40;;
20888;SDS011;10604;51.976;7.594;2022-08-11T20:26:23;3.33;;;2.20;;
20888;SDS011;10604;51.976;7.594;2022-08-11T20:29:07;3.65;;;2.22;;
20888;SDS011;10604;51.976;7.594;2022-08-11T20:31:53;4.18;;;2.50;;
20888;SDS011;10604;51.976;7.594;2022-08-11T20:34:38;3.97;;;2.25;;
20888;SDS011;10604;51.976;7.594;2022-08-11T20:37:24;2.55;;;2.20;;
20888;SDS011;10604;51.976;7.594;2022-08-11T20:40:10;3.20;;;2.30;;
20888;SDS011;10604;51.976;7.594;2022-08-11T20:42:56;3.95;;;2.40;;
20888;SDS011;10604;51.976;7.594;2022-08-11T20:45:42;3.70;;;2.40;;
20888;SDS011;10604;51.976;7.594;2022-08-11T20:48:27;2.67;;;2.23;;
20888;SDS011;10604;51.976;7.594;2022-08-11T20:51:13;2.97;;;2.20;;
20888;SDS011;10604;51.976;7.594;2022-08-11T20:53:58;3.75;;;2.17;;
20888;SDS011;10604;51.976;7.594;2022-08-11T20:56:42;3.28;;;2.22;;
20888;SDS011;10604;51.976;7.594;2022-08-11T20:59:28;2.38;;;2.15;;
20888;SDS011;10604;51.976;7.594;2022-08-11T21:02:13;3.40;;;2.30;;
20888;SDS011;10604;51.976;7.594;2022-08-11T21:04:59;3.97;;;2.00;;
20888;SDS011;10604;51.976;7.594;2022-08-11T21:07:48;3.10;;;2.33;;
20888;SDS011;10604;51.976;7.594;2022-08-11T21:10:35;5.15;;;2.20;;
20888;SDS011;10604;51.976;7.594;2022-08-11T21:13:22;2.70;;;2.20;;
20888;SDS011;10604;51.976;7.594;2022-08-11T21:16:09;3.17;;;2.30;;